createdAt,value
2022-12-01T00:02:18.786Z,4.31
2022-12-01T00:04:50.819Z,4.39
2022-12-01T00:07:20.556Z,4.12
2022-12-01T00:10:05.447Z,4.53
2022-12-01T00:12:35.226Z,4.04
2022-12-01T00:15:04.969Z,3.99
2022-12-01T00:17:34.662Z,4.17
2022-12-01T00:20:04.475Z,3.89
2022-12-01T00:22:34.180Z,3.88
2022-12-01T00:25:08.665Z,4.25
2022-12-01T00:27:38.422Z,3.86
2022-12-01T00:30:10.781Z,4.15
2022-12-01T00:32:40.914Z,3.90
2022-12-01T00:35:11.470Z,4.04
2022-12-01T00:37:41.227Z,4.08
2022-12-01T00:40:14.690Z,3.78
2022-12-01T00:42:44.383Z,3.37
2022-12-01T00:45:14.276Z,3.47
2022-12-01T00:47:44.011Z,3.58
2022-12-01T00:50:14.530Z,4.11
2022-12-01T00:52:44.235Z,4.07
2022-12-01T00:55:16.585Z,3.87
2022-12-01T00:57:47.863Z,4.12
2022-12-01T01:00:19.489Z,4.20
2022-12-01T01:02:49.277Z,4.28
2022-12-01T01:05:19.306Z,4.22
2022-12-01T01:07:49.053Z,4.03
2022-12-01T01:10:22.750Z,4.24
2022-12-01T01:12:55.102Z,4.02
2022-12-01T01:15:24.818Z,3.97
2022-12-01T01:17:54.567Z,4.08
2022-12-01T01:20:24.397Z,4.16
2022-12-01T01:22:54.142Z,4.32
2022-12-01T01:25:26.689Z,4.43
2022-12-01T01:27:56.612Z,4.36
2022-12-01T01:30:26.350Z,4.24
2022-12-01T01:32:56.110Z,4.30
2022-12-01T01:35:25.844Z,4.30
2022-12-01T01:37:55.601Z,4.47
2022-12-01T01:40:27.900Z,4.89
2022-12-01T01:42:57.631Z,4.67
2022-12-01T01:45:30.321Z,4.41
2022-12-01T01:48:03.794Z,4.49
2022-12-01T01:50:33.879Z,4.48
2022-12-01T01:53:07.434Z,4.61
2022-12-01T01:55:40.534Z,4.72
2022-12-01T01:58:14.131Z,4.62
2022-12-01T02:00:46.715Z,4.56
2022-12-01T02:03:19.783Z,4.70
2022-12-01T02:05:49.560Z,4.34
2022-12-01T02:08:19.440Z,4.34
2022-12-01T02:11:12.285Z,4.27
2022-12-01T02:13:53.077Z,4.45
2022-12-01T02:16:33.616Z,4.93
2022-12-01T02:19:14.546Z,4.94
2022-12-01T02:22:01.304Z,4.87
2022-12-01T02:25:07.033Z,4.90
2022-12-01T02:27:59.063Z,4.75
2022-12-01T02:30:41.890Z,4.44
2022-12-01T02:33:20.375Z,4.86
2022-12-01T02:35:58.621Z,4.74
2022-12-01T02:38:33.804Z,5.27
2022-12-01T02:41:11.538Z,4.66
2022-12-01T02:43:46.716Z,4.84
2022-12-01T02:46:25.819Z,4.59
2022-12-01T02:49:02.310Z,5.64
2022-12-01T02:51:34.719Z,4.22
2022-12-01T02:54:06.334Z,4.28
2022-12-01T02:56:36.057Z,4.39
2022-12-01T02:59:12.122Z,4.27
2022-12-01T03:02:07.013Z,5.30
2022-12-01T03:04:54.554Z,5.19
2022-12-01T03:07:40.581Z,5.78
2022-12-01T03:10:19.132Z,4.87
2022-12-01T03:12:59.234Z,4.32
2022-12-01T03:15:38.475Z,4.90
2022-12-01T03:18:21.276Z,4.57
2022-12-01T03:20:59.317Z,5.29
2022-12-01T03:23:33.028Z,5.21
2022-12-01T03:26:07.129Z,4.71
2022-12-01T03:28:41.843Z,4.70
2022-12-01T03:31:15.750Z,3.55
2022-12-01T03:33:53.264Z,3.91
2022-12-01T03:36:27.854Z,4.00
2022-12-01T03:39:03.222Z,4.09
2022-12-01T03:41:39.373Z,3.30
2022-12-01T03:44:14.064Z,3.44
2022-12-01T03:46:51.380Z,3.51
2022-12-01T03:49:26.969Z,3.31
2022-12-01T03:52:23.576Z,4.08
2022-12-01T03:54:57.603Z,3.51
2022-12-01T03:57:32.721Z,3.54
2022-12-01T04:00:03.082Z,3.29
2022-12-01T04:02:42.576Z,3.13
2022-12-01T04:05:15.785Z,3.54
2022-12-01T04:07:45.601Z,3.23
2022-12-01T04:10:15.669Z,3.35
2022-12-01T04:12:42.850Z,3.35
2022-12-01T04:15:14.940Z,3.10
2022-12-01T04:17:46.067Z,3.74
2022-12-01T04:20:18.947Z,3.95
2022-12-01T04:22:48.707Z,4.05
2022-12-01T04:25:19.948Z,3.66
2022-12-01T04:27:49.698Z,3.95
2022-12-01T04:30:19.998Z,4.13
2022-12-01T04:32:49.772Z,3.81
2022-12-01T04:35:22.091Z,3.71
2022-12-01T04:37:51.889Z,4.21
2022-12-01T04:40:21.780Z,3.64
2022-12-01T04:42:51.440Z,4.04
2022-12-01T04:45:21.154Z,3.91
2022-12-01T04:47:50.901Z,3.62
2022-12-01T04:50:23.208Z,3.35
2022-12-01T04:52:54.185Z,3.31
2022-12-01T04:55:25.752Z,3.36
2022-12-01T04:57:55.515Z,3.34
2022-12-01T05:00:25.208Z,3.11
2022-12-01T05:02:54.943Z,3.08
2022-12-01T05:05:27.263Z,2.76
2022-12-01T05:07:57.004Z,3.15
2022-12-01T05:10:26.806Z,3.34
2022-12-01T05:12:58.196Z,3.66
2022-12-01T05:15:28.085Z,3.19
2022-12-01T05:17:57.815Z,3.48
2022-12-01T05:20:42.733Z,4.08
2022-12-01T05:23:16.742Z,3.31
2022-12-01T05:25:46.919Z,3.64
2022-12-01T05:28:16.637Z,3.18
2022-12-01T05:30:46.391Z,2.93
2022-12-01T05:33:16.145Z,3.28
2022-12-01T05:35:48.566Z,3.28
2022-12-01T05:38:18.590Z,3.36
2022-12-01T05:40:53.032Z,3.34
2022-12-01T05:43:28.701Z,3.07
2022-12-01T05:46:00.251Z,3.49
2022-12-01T05:48:30.040Z,3.31
2022-12-01T05:51:02.335Z,3.09
2022-12-01T05:53:32.068Z,3.11
2022-12-01T05:56:01.741Z,3.13
2022-12-01T05:58:32.733Z,3.18
2022-12-01T06:01:05.436Z,3.46
2022-12-01T06:03:35.143Z,3.36
2022-12-01T06:06:07.643Z,3.09
2022-12-01T06:08:37.454Z,3.07
2022-12-01T06:11:07.303Z,3.19
2022-12-01T06:13:37.061Z,2.99
2022-12-01T06:16:08.885Z,2.63
2022-12-01T06:18:40.907Z,2.80
2022-12-01T06:21:13.218Z,2.74
2022-12-01T06:23:42.926Z,3.40
2022-12-01T06:26:12.654Z,3.46
2022-12-01T06:28:42.626Z,3.00
2022-12-01T06:31:12.606Z,3.18
2022-12-01T06:33:42.315Z,3.15
2022-12-01T06:36:14.910Z,3.04
2022-12-01T06:38:44.682Z,2.97
2022-12-01T06:41:14.426Z,2.96
2022-12-01T06:43:44.231Z,3.54
2022-12-01T06:46:14.040Z,3.03
2022-12-01T06:48:43.784Z,3.33
2022-12-01T06:51:16.053Z,3.04
2022-12-01T06:53:45.724Z,3.07
2022-12-01T06:56:16.362Z,3.07
2022-12-01T06:58:46.395Z,3.30
2022-12-01T07:01:16.541Z,2.90
2022-12-01T07:03:49.752Z,3.27
2022-12-01T07:06:22.154Z,2.93
2022-12-01T07:08:51.935Z,3.17
2022-12-01T07:11:21.750Z,2.51
2022-12-01T07:13:51.986Z,2.87
2022-12-01T07:16:22.288Z,3.05
2022-12-01T07:18:53.143Z,2.84
2022-12-01T07:21:25.397Z,3.11
2022-12-01T07:23:55.071Z,2.80
2022-12-01T07:26:24.799Z,3.02
2022-12-01T07:28:55.896Z,3.38
2022-12-01T07:31:25.699Z,3.26
2022-12-01T07:33:58.605Z,2.72
2022-12-01T07:36:31.001Z,2.61
2022-12-01T07:39:02.286Z,2.95
2022-12-01T07:41:31.966Z,3.39
2022-12-01T07:44:01.680Z,2.83
2022-12-01T07:46:31.583Z,3.05
2022-12-01T07:49:01.705Z,2.84
2022-12-01T07:51:34.066Z,2.66
2022-12-01T07:54:06.422Z,3.01
2022-12-01T07:56:37.619Z,3.10
2022-12-01T07:59:07.553Z,2.94
2022-12-01T08:01:41.519Z,2.87
2022-12-01T08:04:14.190Z,3.12
2022-12-01T08:06:46.520Z,2.73
2022-12-01T08:09:16.248Z,2.88
2022-12-01T08:11:46.006Z,2.83
2022-12-01T08:14:16.170Z,2.69
2022-12-01T08:16:46.175Z,2.60
2022-12-01T08:19:15.965Z,2.66
2022-12-01T08:21:48.289Z,2.88
2022-12-01T08:24:18.093Z,2.99
2022-12-01T08:26:47.896Z,2.68
2022-12-01T08:29:20.390Z,2.93
2022-12-01T08:31:50.686Z,3.03
2022-12-01T08:34:20.680Z,3.37
2022-12-01T08:36:54.276Z,2.96
2022-12-01T08:39:24.083Z,2.74
2022-12-01T08:41:53.804Z,3.04
2022-12-01T08:44:23.633Z,2.93
2022-12-01T08:46:54.534Z,2.79
2022-12-01T08:49:24.741Z,2.51
2022-12-01T08:51:57.014Z,2.50
2022-12-01T08:54:26.695Z,2.86
2022-12-01T08:56:56.401Z,2.61
2022-12-01T08:59:26.098Z,3.28
2022-12-01T09:01:57.538Z,3.14
2022-12-01T09:04:30.174Z,3.61
2022-12-01T09:07:02.759Z,3.78
2022-12-01T09:09:32.536Z,4.08
2022-12-01T09:12:03.241Z,3.40
2022-12-01T09:14:32.981Z,3.62
2022-12-01T09:17:02.713Z,3.94
2022-12-01T09:19:32.639Z,3.46
2022-12-01T09:22:06.370Z,3.68
2022-12-01T09:24:36.184Z,3.49
2022-12-01T09:27:07.109Z,3.63
2022-12-01T09:29:36.877Z,3.58
2022-12-01T09:32:06.699Z,3.15
2022-12-01T09:34:36.403Z,3.36
2022-12-01T09:37:08.707Z,3.36
2022-12-01T09:39:38.391Z,2.92
2022-12-01T09:42:14.149Z,3.36
2022-12-01T09:44:45.483Z,3.31
2022-12-01T09:47:21.216Z,3.39
2022-12-01T09:49:54.813Z,3.38
2022-12-01T09:52:29.252Z,3.35
2022-12-01T09:55:01.979Z,3.26
2022-12-01T09:57:35.368Z,2.71
2022-12-01T10:00:09.177Z,3.14
2022-12-01T10:02:51.544Z,3.76
2022-12-01T10:05:23.867Z,3.31
2022-12-01T10:08:01.466Z,3.57
2022-12-01T10:10:36.020Z,3.05
2022-12-01T10:13:06.069Z,3.23
2022-12-01T10:15:44.033Z,3.90
2022-12-01T10:18:25.105Z,3.66
2022-12-01T10:21:05.028Z,3.70
2022-12-01T10:23:50.186Z,3.67
2022-12-01T10:26:28.452Z,3.96
2022-12-01T10:29:14.011Z,3.66
2022-12-01T10:31:56.117Z,3.61
2022-12-01T10:34:28.150Z,3.66
2022-12-01T10:36:58.722Z,3.51
2022-12-01T10:39:36.212Z,3.66
2022-12-01T10:42:10.707Z,3.49
2022-12-01T10:44:40.825Z,3.88
2022-12-01T10:47:20.621Z,3.36
2022-12-01T10:49:51.005Z,3.66
2022-12-01T10:52:37.464Z,3.50
2022-12-01T10:55:29.145Z,4.12
2022-12-01T10:58:07.777Z,3.63
2022-12-01T11:00:59.224Z,3.69
2022-12-01T11:03:33.698Z,3.96
2022-12-01T11:06:05.776Z,3.93
2022-12-01T11:08:42.064Z,4.21
2022-12-01T11:11:28.076Z,3.64
2022-12-01T11:13:59.641Z,3.51
2022-12-01T11:16:44.490Z,3.17
2022-12-01T11:19:30.925Z,3.38
2022-12-01T11:22:05.418Z,3.75
2022-12-01T11:24:45.352Z,3.75
2022-12-01T11:27:23.561Z,3.92
2022-12-01T11:29:56.549Z,3.42
2022-12-01T11:32:29.473Z,3.90
2022-12-01T11:35:02.228Z,4.13
2022-12-01T11:37:36.344Z,3.69
2022-12-01T11:40:18.973Z,3.97
2022-12-01T11:42:55.097Z,4.08
2022-12-01T11:45:32.520Z,3.96
2022-12-01T11:48:08.981Z,3.87
2022-12-01T11:50:41.773Z,3.65
2022-12-01T11:53:30.185Z,3.87
2022-12-01T11:56:20.896Z,3.62
2022-12-01T11:58:57.466Z,3.81
2022-12-01T12:01:39.288Z,4.15
2022-12-01T12:04:23.662Z,4.11
2022-12-01T12:07:04.330Z,3.52
2022-12-01T12:09:51.085Z,3.62
2022-12-01T12:12:38.086Z,3.74
2022-12-01T12:15:21.586Z,3.81
2022-12-01T12:18:05.553Z,3.82
2022-12-01T12:20:45.745Z,4.11
2022-12-01T12:23:51.067Z,3.91
2022-12-01T12:26:28.116Z,4.16
2022-12-01T12:29:18.153Z,4.35
2022-12-01T12:32:06.246Z,4.44
2022-12-01T12:34:49.442Z,3.34
2022-12-01T12:37:24.988Z,3.56
2022-12-01T12:40:29.699Z,3.60
2022-12-01T12:43:20.810Z,3.51
2022-12-01T12:46:00.355Z,4.06
2022-12-01T12:49:18.111Z,4.21
2022-12-01T12:51:40.871Z,4.06
2022-12-01T12:54:21.496Z,4.06
2022-12-01T12:56:57.007Z,3.82
2022-12-01T12:59:32.848Z,3.29
2022-12-01T13:02:06.436Z,3.95
2022-12-01T13:04:45.559Z,3.78
2022-12-01T13:07:28.323Z,3.74
2022-12-01T13:10:03.304Z,3.64
2022-12-01T13:12:38.019Z,3.78
2022-12-01T13:15:18.005Z,4.57
2022-12-01T13:17:51.360Z,4.79
2022-12-01T13:20:27.780Z,4.36
2022-12-01T13:23:00.727Z,4.48
2022-12-01T13:25:35.857Z,4.12
2022-12-01T13:28:07.583Z,4.16
2022-12-01T13:30:37.377Z,4.95
2022-12-01T13:33:08.930Z,4.31
2022-12-01T13:35:42.360Z,4.47
2022-12-01T13:38:34.030Z,4.05
2022-12-01T13:41:15.249Z,4.17
2022-12-01T13:43:56.452Z,4.24
2022-12-01T13:46:28.867Z,4.03
2022-12-01T13:49:00.511Z,4.44
2022-12-01T13:52:10.542Z,4.24
2022-12-01T13:54:40.399Z,4.33
2022-12-01T13:57:15.522Z,4.28
2022-12-01T14:00:23.800Z,3.40
2022-12-01T14:03:23.808Z,3.99
2022-12-01T14:05:59.051Z,4.12
2022-12-01T14:08:33.556Z,4.40
2022-12-01T14:11:06.141Z,4.52
2022-12-01T14:13:48.082Z,3.99
2022-12-01T14:16:18.251Z,3.35
2022-12-01T14:18:54.567Z,3.90
2022-12-01T14:21:46.860Z,4.96
2022-12-01T14:24:28.585Z,4.11
2022-12-01T14:26:58.655Z,4.89
2022-12-01T14:29:34.517Z,4.38
2022-12-01T14:32:26.718Z,4.07
2022-12-01T14:35:04.181Z,3.42
2022-12-01T14:37:45.343Z,3.64
2022-12-01T14:40:24.829Z,3.61
2022-12-01T14:43:10.806Z,3.61
2022-12-01T14:45:45.613Z,4.12
2022-12-01T14:48:19.477Z,3.89
2022-12-01T14:50:52.134Z,3.36
2022-12-01T14:53:26.618Z,4.15
2022-12-01T14:56:02.225Z,4.17
2022-12-01T14:58:33.839Z,3.68
2022-12-01T15:01:08.869Z,3.78
2022-12-01T15:03:42.841Z,3.87
2022-12-01T15:06:18.806Z,3.50
2022-12-01T15:09:10.517Z,3.85
2022-12-01T15:11:52.867Z,4.10
2022-12-01T15:14:31.374Z,4.11
2022-12-01T15:17:02.730Z,4.38
2022-12-01T15:19:38.637Z,3.62
2022-12-01T15:22:14.708Z,3.74
2022-12-01T15:24:45.434Z,3.99
2022-12-01T15:27:32.879Z,3.76
2022-12-01T15:30:04.910Z,3.67
2022-12-01T15:32:43.167Z,3.60
2022-12-01T15:35:20.790Z,3.44
2022-12-01T15:37:51.734Z,3.41
2022-12-01T15:41:06.212Z,3.50
2022-12-01T15:43:22.848Z,3.30
2022-12-01T15:45:58.161Z,3.61
2022-12-01T15:48:31.483Z,3.53
2022-12-01T15:51:10.551Z,3.53
2022-12-01T15:53:43.114Z,3.52
2022-12-01T15:56:14.461Z,3.34
2022-12-01T15:58:49.112Z,3.58
2022-12-01T16:01:21.554Z,4.15
2022-12-01T16:03:56.814Z,3.93
2022-12-01T16:06:29.474Z,3.78
2022-12-01T16:09:03.380Z,3.59
2022-12-01T16:11:33.762Z,3.48
2022-12-01T16:14:09.737Z,3.97
2022-12-01T16:16:42.113Z,3.76
2022-12-01T16:19:28.531Z,3.55
2022-12-01T16:22:02.047Z,3.92
2022-12-01T16:24:35.687Z,3.83
2022-12-01T16:27:07.170Z,3.56
2022-12-01T16:29:55.111Z,3.40
2022-12-01T16:32:28.066Z,3.53
2022-12-01T16:34:58.072Z,3.10
2022-12-01T16:37:29.303Z,3.53
2022-12-01T16:39:59.581Z,3.39
2022-12-01T16:42:30.418Z,3.52
2022-12-01T16:45:02.702Z,3.73
2022-12-01T16:47:34.796Z,4.15
2022-12-01T16:50:04.600Z,3.65
2022-12-01T16:52:49.805Z,3.86
2022-12-01T16:55:29.749Z,3.67
2022-12-01T16:57:59.523Z,3.34
2022-12-01T17:00:32.034Z,3.89
2022-12-01T17:03:01.798Z,3.12
2022-12-01T17:05:31.656Z,3.89
2022-12-01T17:08:01.553Z,3.40
2022-12-01T17:10:31.631Z,3.71
2022-12-01T17:13:01.311Z,3.88
2022-12-01T17:15:33.636Z,2.97
2022-12-01T17:18:03.663Z,3.75
2022-12-01T17:20:33.338Z,3.34
2022-12-01T17:23:03.187Z,3.76
2022-12-01T17:25:32.958Z,3.47
2022-12-01T17:28:02.749Z,3.25
2022-12-01T17:30:35.080Z,3.70
2022-12-01T17:33:05.052Z,3.44
2022-12-01T17:35:35.162Z,3.58
2022-12-01T17:38:04.865Z,3.82
2022-12-01T17:40:35.241Z,3.55
2022-12-01T17:43:04.991Z,3.39
2022-12-01T17:45:42.218Z,3.48
2022-12-01T17:48:12.017Z,3.73
2022-12-01T17:50:41.812Z,3.80
2022-12-01T17:53:11.654Z,3.40
2022-12-01T17:55:42.306Z,3.36
2022-12-01T17:58:12.229Z,3.58
2022-12-01T18:00:44.756Z,3.15
2022-12-01T18:03:14.586Z,3.05
2022-12-01T18:05:44.480Z,3.22
2022-12-01T18:08:14.445Z,3.06
2022-12-01T18:10:46.570Z,3.14
2022-12-01T18:13:16.339Z,3.19
2022-12-01T18:15:48.782Z,2.96
2022-12-01T18:18:18.641Z,3.00
2022-12-01T18:20:48.544Z,3.13
2022-12-01T18:23:18.343Z,3.60
2022-12-01T18:25:48.163Z,3.04
2022-12-01T18:28:17.895Z,3.30
2022-12-01T18:30:50.228Z,3.12
2022-12-01T18:33:21.763Z,2.87
2022-12-01T18:35:52.478Z,3.01
2022-12-01T18:38:23.330Z,2.95
2022-12-01T18:40:53.143Z,2.76
2022-12-01T18:43:22.861Z,2.71
2022-12-01T18:45:55.266Z,2.86
2022-12-01T18:48:25.353Z,2.98
2022-12-01T18:50:59.481Z,2.81
2022-12-01T18:53:30.009Z,3.17
2022-12-01T18:55:59.826Z,3.34
2022-12-01T18:58:29.561Z,3.20
2022-12-01T19:01:03.289Z,3.15
2022-12-01T19:03:34.036Z,2.87
2022-12-01T19:06:09.907Z,2.79
2022-12-01T19:08:39.613Z,2.97
2022-12-01T19:11:11.649Z,2.85
2022-12-01T19:13:41.722Z,3.13
2022-12-01T19:16:18.499Z,2.98
2022-12-01T19:18:49.205Z,3.25
2022-12-01T19:21:21.475Z,3.11
2022-12-01T19:23:52.667Z,3.28
2022-12-01T19:26:25.631Z,3.68
2022-12-01T19:28:55.576Z,2.95
2022-12-01T19:31:28.166Z,2.77
2022-12-01T19:33:58.126Z,2.96
2022-12-01T19:36:30.201Z,3.35
2022-12-01T19:39:04.015Z,3.73
2022-12-01T19:41:37.009Z,3.13
2022-12-01T19:44:09.410Z,3.03
2022-12-01T19:46:41.749Z,2.43
2022-12-01T19:49:13.534Z,2.51
2022-12-01T19:51:44.009Z,2.37
2022-12-01T19:54:16.686Z,2.38
2022-12-01T19:56:46.872Z,2.74
2022-12-01T19:59:16.653Z,2.59
2022-12-01T20:01:49.610Z,2.97
2022-12-01T20:04:19.369Z,3.20
2022-12-01T20:06:49.626Z,3.62
2022-12-01T20:09:19.329Z,3.37
2022-12-01T20:11:49.179Z,3.03
2022-12-01T20:14:18.894Z,2.80
2022-12-01T20:16:51.573Z,3.36
2022-12-01T20:19:21.394Z,3.10
2022-12-01T20:21:51.601Z,3.21
2022-12-01T20:24:22.850Z,3.15
2022-12-01T20:26:56.661Z,3.02
2022-12-01T20:29:29.312Z,2.83
2022-12-01T20:32:04.334Z,2.55
2022-12-01T20:34:36.531Z,3.31
2022-12-01T20:37:06.733Z,3.44
2022-12-01T20:39:38.226Z,3.83
2022-12-01T20:42:08.354Z,2.94
2022-12-01T20:44:40.069Z,2.83
2022-12-01T20:47:12.395Z,3.09
2022-12-01T20:49:42.102Z,3.51
2022-12-01T20:52:11.846Z,2.78
2022-12-01T20:54:41.860Z,2.96
2022-12-01T20:57:11.556Z,2.83
2022-12-01T20:59:41.237Z,2.55
2022-12-01T21:02:14.831Z,3.12
2022-12-01T21:04:44.590Z,3.34
2022-12-01T21:07:14.367Z,3.06
2022-12-01T21:09:44.106Z,3.51
2022-12-01T21:12:29.638Z,2.97
2022-12-01T21:15:05.912Z,3.01
2022-12-01T21:17:42.803Z,2.29
2022-12-01T21:20:22.063Z,2.51
2022-12-01T21:22:53.778Z,2.53
2022-12-01T21:25:25.670Z,2.16
2022-12-01T21:27:59.105Z,2.85
2022-12-01T21:30:29.995Z,3.21
2022-12-01T21:33:19.709Z,2.61
2022-12-01T21:35:54.073Z,2.88
2022-12-01T21:38:26.304Z,2.93
2022-12-01T21:40:56.457Z,2.76
2022-12-01T21:43:28.247Z,2.82
2022-12-01T21:46:01.056Z,2.74
2022-12-01T21:48:38.191Z,2.87
2022-12-01T21:51:23.112Z,2.94
2022-12-01T21:53:54.222Z,2.47
2022-12-01T21:56:27.100Z,2.81
2022-12-01T21:59:01.698Z,2.66
2022-12-01T22:01:33.168Z,2.13
2022-12-01T22:04:14.389Z,2.51
2022-12-01T22:06:47.282Z,2.70
2022-12-01T22:09:24.565Z,2.54
2022-12-01T22:11:56.520Z,2.68
2022-12-01T22:14:30.526Z,2.52
2022-12-01T22:17:03.930Z,2.81
2022-12-01T22:19:38.221Z,3.03
2022-12-01T22:22:25.077Z,2.76
2022-12-01T22:24:55.947Z,2.04
2022-12-01T22:27:31.914Z,2.44
2022-12-01T22:30:04.271Z,2.39
2022-12-01T22:32:43.325Z,2.33
2022-12-01T22:35:29.505Z,2.82
2022-12-01T22:38:12.067Z,2.93
2022-12-01T22:40:43.314Z,2.87
2022-12-01T22:43:27.325Z,3.10
2022-12-01T22:46:20.212Z,3.30
2022-12-01T22:48:52.921Z,2.71
2022-12-01T22:51:39.834Z,3.13
2022-12-01T22:54:27.387Z,3.28
2022-12-01T22:57:05.445Z,3.00
2022-12-01T22:59:37.513Z,3.00
2022-12-01T23:02:20.542Z,3.77
2022-12-01T23:04:52.529Z,3.52
2022-12-01T23:07:44.145Z,2.63
2022-12-01T23:10:18.333Z,3.08
2022-12-01T23:12:49.472Z,3.07
2022-12-01T23:15:35.366Z,3.09
2022-12-01T23:18:14.399Z,3.73
2022-12-01T23:20:46.330Z,4.44
2022-12-01T23:23:20.481Z,3.69
2022-12-01T23:25:52.554Z,3.36
2022-12-01T23:28:23.054Z,3.10
2022-12-01T23:30:56.799Z,3.19
2022-12-01T23:33:28.615Z,2.85
2022-12-01T23:36:02.135Z,2.74
2022-12-01T23:38:40.026Z,2.65
2022-12-01T23:41:13.290Z,2.85
2022-12-01T23:43:45.508Z,3.43
2022-12-01T23:46:19.249Z,2.86
2022-12-01T23:48:51.990Z,3.10
2022-12-01T23:51:28.056Z,3.89
2022-12-01T23:54:02.973Z,2.71
2022-12-01T23:56:34.309Z,2.85
2022-12-01T23:59:04.143Z,2.78
